createdAt,value
2023-05-25T00:02:06.911Z,14.44
2023-05-25T00:04:55.002Z,14.35
2023-05-25T00:07:42.877Z,14.32
2023-05-25T00:10:30.841Z,14.46
2023-05-25T00:13:18.626Z,14.36
2023-05-25T00:16:07.304Z,14.16
2023-05-25T00:18:57.903Z,14.47
2023-05-25T00:21:48.304Z,14.64
2023-05-25T00:24:36.340Z,14.67
2023-05-25T00:27:24.630Z,14.43
2023-05-25T00:30:13.421Z,14.28
2023-05-25T00:33:02.021Z,15.12
2023-05-25T00:35:52.702Z,14.54
2023-05-25T00:38:41.006Z,14.70
2023-05-25T00:41:29.381Z,14.75
2023-05-25T00:44:21.683Z,14.71
2023-05-25T00:47:09.842Z,14.97
2023-05-25T00:49:58.984Z,14.54
2023-05-25T00:52:48.762Z,14.55
2023-05-25T00:55:40.261Z,14.38
2023-05-25T00:58:31.082Z,14.39
2023-05-25T01:01:22.134Z,14.76
2023-05-25T01:04:13.425Z,14.55
2023-05-25T01:07:02.385Z,14.32
2023-05-25T01:09:58.177Z,14.25
2023-05-25T01:12:47.081Z,14.21
2023-05-25T01:15:35.245Z,14.17
2023-05-25T01:18:23.107Z,14.54
2023-05-25T01:21:20.351Z,14.32
2023-05-25T01:24:17.657Z,14.13
2023-05-25T01:27:14.043Z,14.01
2023-05-25T01:30:03.830Z,14.28
2023-05-25T01:32:52.003Z,13.90
2023-05-25T01:35:40.565Z,13.76
2023-05-25T01:38:29.714Z,14.16
2023-05-25T01:41:17.746Z,14.01
2023-05-25T01:44:07.709Z,13.74
2023-05-25T01:47:03.754Z,13.95
2023-05-25T01:50:01.317Z,13.98
2023-05-25T01:52:54.922Z,12.98
2023-05-25T01:55:54.860Z,13.71
2023-05-25T01:58:45.623Z,13.74
2023-05-25T02:01:36.606Z,13.87
2023-05-25T02:04:24.666Z,13.82
2023-05-25T02:07:12.522Z,14.23
2023-05-25T02:10:00.670Z,13.76
2023-05-25T02:12:49.735Z,14.29
2023-05-25T02:15:37.785Z,14.20
2023-05-25T02:18:26.506Z,13.95
2023-05-25T02:21:14.321Z,13.58
2023-05-25T02:24:02.021Z,13.58
2023-05-25T02:26:49.730Z,14.00
2023-05-25T02:29:38.923Z,13.78
2023-05-25T02:32:26.624Z,13.69
2023-05-25T02:35:14.695Z,13.56
2023-05-25T02:38:02.849Z,13.82
2023-05-25T02:40:50.828Z,13.61
2023-05-25T02:43:39.385Z,14.01
2023-05-25T02:46:28.765Z,13.98
2023-05-25T02:49:16.789Z,13.69
2023-05-25T02:52:05.175Z,13.80
2023-05-25T02:54:53.115Z,13.69
2023-05-25T02:57:41.081Z,13.58
2023-05-25T03:00:28.825Z,13.51
2023-05-25T03:03:17.929Z,13.38
2023-05-25T03:06:05.961Z,13.48
2023-05-25T03:08:53.868Z,13.75
2023-05-25T03:11:41.587Z,13.21
2023-05-25T03:14:29.590Z,13.49
2023-05-25T03:17:17.405Z,13.47
2023-05-25T03:20:10.613Z,13.40
2023-05-25T03:22:58.445Z,13.65
2023-05-25T03:25:46.819Z,13.51
2023-05-25T03:28:34.861Z,13.53
2023-05-25T03:31:22.563Z,13.88
2023-05-25T03:34:10.677Z,13.55
2023-05-25T03:36:59.821Z,13.52
2023-05-25T03:39:47.610Z,13.64
2023-05-25T03:42:35.570Z,13.58
2023-05-25T03:45:23.359Z,13.86
2023-05-25T03:48:11.237Z,13.73
2023-05-25T03:50:59.203Z,13.88
2023-05-25T03:53:48.540Z,14.70
2023-05-25T03:56:36.709Z,15.05
2023-05-25T03:59:25.654Z,14.95
2023-05-25T04:02:13.441Z,14.92
2023-05-25T04:05:01.122Z,15.28
2023-05-25T04:07:49.151Z,15.35
2023-05-25T04:10:38.251Z,14.47
2023-05-25T04:13:26.388Z,14.24
2023-05-25T04:16:14.832Z,14.45
2023-05-25T04:19:02.546Z,14.20
2023-05-25T04:21:50.298Z,14.22
2023-05-25T04:24:37.961Z,14.45
2023-05-25T04:27:28.485Z,14.46
2023-05-25T04:30:16.761Z,15.23
2023-05-25T04:33:04.967Z,14.84
2023-05-25T04:35:54.483Z,14.94
2023-05-25T04:38:43.047Z,15.52
2023-05-25T04:41:31.090Z,15.19
2023-05-25T04:44:20.674Z,15.25
2023-05-25T04:47:08.787Z,14.61
2023-05-25T04:49:56.836Z,15.00
2023-05-25T04:52:44.561Z,15.51
2023-05-25T04:55:32.299Z,15.84
2023-05-25T04:58:19.971Z,15.95
2023-05-25T05:01:09.097Z,15.86
2023-05-25T05:03:57.101Z,16.08
2023-05-25T05:06:45.430Z,15.97
2023-05-25T05:09:33.283Z,15.77
2023-05-25T05:12:21.381Z,15.40
2023-05-25T05:15:09.894Z,15.30
2023-05-25T05:17:58.992Z,15.73
2023-05-25T05:20:47.087Z,16.30
2023-05-25T05:23:34.830Z,16.04
2023-05-25T05:26:23.120Z,15.96
2023-05-25T05:29:11.209Z,15.93
2023-05-25T05:31:59.205Z,16.19
2023-05-25T05:34:48.377Z,16.19
2023-05-25T05:37:36.354Z,16.34
2023-05-25T05:40:26.214Z,16.41
2023-05-25T05:43:15.144Z,16.53
2023-05-25T05:46:03.225Z,16.77
2023-05-25T05:48:51.061Z,16.85
2023-05-25T05:51:40.241Z,16.77
2023-05-25T05:54:29.118Z,16.95
2023-05-25T05:57:16.777Z,17.12
2023-05-25T06:00:06.992Z,17.19
2023-05-25T06:02:55.178Z,17.48
2023-05-25T06:05:43.498Z,17.57
2023-05-25T06:08:32.784Z,17.50
2023-05-25T06:11:20.462Z,17.63
2023-05-25T06:14:08.503Z,17.90
2023-05-25T06:16:56.359Z,17.91
2023-05-25T06:19:44.395Z,18.02
2023-05-25T06:22:33.421Z,17.85
2023-05-25T06:25:22.958Z,18.19
2023-05-25T06:28:10.778Z,18.40
2023-05-25T06:30:58.852Z,18.44
2023-05-25T06:33:46.704Z,18.53
2023-05-25T06:36:34.405Z,18.59
2023-05-25T06:39:22.318Z,18.68
2023-05-25T06:42:12.434Z,18.80
2023-05-25T06:45:00.515Z,18.89
2023-05-25T06:47:48.342Z,18.93
2023-05-25T06:50:36.093Z,18.89
2023-05-25T06:53:23.855Z,18.96
2023-05-25T06:56:11.741Z,19.00
2023-05-25T06:59:01.118Z,19.10
2023-05-25T07:01:48.854Z,19.02
2023-05-25T07:04:36.964Z,19.03
2023-05-25T07:07:24.704Z,19.32
2023-05-25T07:10:12.804Z,19.30
2023-05-25T07:13:00.431Z,19.55
2023-05-25T07:15:49.569Z,19.56
2023-05-25T07:18:40.796Z,19.59
2023-05-25T07:21:28.730Z,19.73
2023-05-25T07:24:16.566Z,19.72
2023-05-25T07:27:04.928Z,19.82
2023-05-25T07:29:52.798Z,19.89
2023-05-25T07:32:42.649Z,19.84
2023-05-25T07:35:30.508Z,19.96
2023-05-25T07:38:18.660Z,20.11
2023-05-25T07:41:06.572Z,20.10
2023-05-25T07:43:54.441Z,20.17
2023-05-25T07:46:42.191Z,20.16
2023-05-25T07:49:31.274Z,20.23
2023-05-25T07:52:19.634Z,20.32
2023-05-25T07:55:08.402Z,20.26
2023-05-25T07:57:56.418Z,20.23
2023-05-25T08:00:44.695Z,20.15
2023-05-25T08:03:48.262Z,20.38
2023-05-25T08:06:38.613Z,20.47
2023-05-25T08:09:26.279Z,20.63
2023-05-25T08:12:34.295Z,20.59
2023-05-25T08:15:21.775Z,20.71
2023-05-25T08:18:09.816Z,20.85
2023-05-25T08:20:57.848Z,20.91
2023-05-25T08:23:47.043Z,21.10
2023-05-25T08:26:53.085Z,20.99
2023-05-25T08:29:42.282Z,20.75
2023-05-25T08:32:30.037Z,20.87
2023-05-25T08:35:18.168Z,21.08
2023-05-25T08:38:06.024Z,21.06
2023-05-25T08:41:05.903Z,20.88
2023-05-25T08:43:54.201Z,20.81
2023-05-25T08:46:42.296Z,20.74
2023-05-25T08:49:31.630Z,20.88
2023-05-25T08:52:23.509Z,21.03
2023-05-25T08:55:12.357Z,21.04
2023-05-25T08:58:08.264Z,21.01
2023-05-25T09:00:59.799Z,21.07
2023-05-25T09:03:48.336Z,21.15
2023-05-25T09:06:38.617Z,21.21
2023-05-25T09:09:26.874Z,21.26
2023-05-25T09:12:16.562Z,21.09
2023-05-25T09:15:06.319Z,21.55
2023-05-25T09:17:54.182Z,21.63
2023-05-25T09:20:45.105Z,21.41
2023-05-25T09:23:35.588Z,21.38
2023-05-25T09:26:23.625Z,21.48
2023-05-25T09:29:14.663Z,21.79
2023-05-25T09:32:05.681Z,21.99
2023-05-25T09:34:55.588Z,22.01
2023-05-25T09:37:44.770Z,21.94
2023-05-25T09:40:34.365Z,21.99
2023-05-25T09:43:36.424Z,22.15
2023-05-25T09:46:28.407Z,22.21
2023-05-25T09:49:17.671Z,22.14
2023-05-25T09:52:06.059Z,22.10
2023-05-25T09:54:55.053Z,22.30
2023-05-25T09:57:44.286Z,22.26
2023-05-25T10:00:32.361Z,22.53
2023-05-25T10:03:21.954Z,22.65
2023-05-25T10:06:11.683Z,22.80
2023-05-25T10:08:59.771Z,22.71
2023-05-25T10:11:48.034Z,22.63
2023-05-25T10:14:38.872Z,22.40
2023-05-25T10:17:29.059Z,22.43
2023-05-25T10:20:17.432Z,22.34
2023-05-25T10:23:12.608Z,22.28
2023-05-25T10:26:04.662Z,22.34
2023-05-25T10:28:53.127Z,22.54
2023-05-25T10:31:41.430Z,22.55
2023-05-25T10:34:30.131Z,22.74
2023-05-25T10:37:18.243Z,22.75
2023-05-25T10:40:09.722Z,22.87
2023-05-25T10:42:57.804Z,22.71
2023-05-25T10:45:45.833Z,22.86
2023-05-25T10:48:37.887Z,22.86
2023-05-25T10:51:38.630Z,23.01
2023-05-25T10:54:30.369Z,23.07
2023-05-25T10:57:24.460Z,23.04
2023-05-25T11:00:14.775Z,23.26
2023-05-25T11:03:03.396Z,23.32
2023-05-25T11:05:52.246Z,23.34
2023-05-25T11:08:55.853Z,23.32
2023-05-25T11:12:03.775Z,23.38
2023-05-25T11:15:15.508Z,23.27
2023-05-25T11:18:03.578Z,23.24
2023-05-25T11:20:51.501Z,22.91
2023-05-25T11:23:53.296Z,22.96
2023-05-25T11:26:54.798Z,22.39
2023-05-25T11:29:42.591Z,22.76
2023-05-25T11:32:31.763Z,22.90
2023-05-25T11:35:19.494Z,22.91
2023-05-25T11:38:08.623Z,22.81
2023-05-25T11:40:56.695Z,22.86
2023-05-25T11:43:46.912Z,22.79
2023-05-25T11:46:35.531Z,22.51
2023-05-25T11:49:25.978Z,22.80
2023-05-25T11:52:15.388Z,22.75
2023-05-25T11:55:03.290Z,23.02
2023-05-25T11:57:58.855Z,23.16
2023-05-25T12:00:46.676Z,22.94
2023-05-25T12:03:34.766Z,23.15
2023-05-25T12:06:28.741Z,23.07
2023-05-25T12:09:21.009Z,23.03
2023-05-25T12:12:09.396Z,22.95
2023-05-25T12:14:59.094Z,23.07
2023-05-25T12:17:47.233Z,22.87
2023-05-25T12:20:38.815Z,22.89
2023-05-25T12:23:28.145Z,22.82
2023-05-25T12:26:17.752Z,22.77
2023-05-25T12:29:07.265Z,22.58
2023-05-25T12:32:02.670Z,22.49
2023-05-25T12:34:50.527Z,22.42
2023-05-25T12:37:38.333Z,22.54
2023-05-25T12:40:28.723Z,22.38
2023-05-25T12:43:17.729Z,22.39
2023-05-25T12:46:05.634Z,22.26
2023-05-25T12:48:53.439Z,22.13
2023-05-25T12:51:41.200Z,22.04
2023-05-25T12:54:45.848Z,22.12
2023-05-25T12:57:36.898Z,22.04
2023-05-25T13:00:26.788Z,21.78
2023-05-25T13:03:14.628Z,21.99
2023-05-25T13:06:03.427Z,21.65
2023-05-25T13:08:51.383Z,21.56
2023-05-25T13:11:39.112Z,21.15
2023-05-25T13:14:28.460Z,20.94
2023-05-25T13:17:16.351Z,21.21
2023-05-25T13:20:05.131Z,21.32
2023-05-25T13:22:55.739Z,21.36
2023-05-25T13:25:43.601Z,20.82
2023-05-25T13:28:31.486Z,19.99
2023-05-25T13:31:20.658Z,20.15
2023-05-25T13:34:08.674Z,19.43
2023-05-25T13:36:56.649Z,19.54
2023-05-25T13:39:44.584Z,19.67
2023-05-25T13:42:32.468Z,19.77
2023-05-25T13:45:20.674Z,19.77
2023-05-25T13:48:09.828Z,19.83
2023-05-25T13:50:57.606Z,19.70
2023-05-25T13:53:45.784Z,19.69
2023-05-25T13:56:33.541Z,19.79
2023-05-25T13:59:21.573Z,19.96
2023-05-25T14:02:09.287Z,19.67
2023-05-25T14:04:58.629Z,19.53
2023-05-25T14:07:47.186Z,19.79
2023-05-25T14:10:35.000Z,20.07
2023-05-25T14:13:23.046Z,20.06
2023-05-25T14:16:10.985Z,19.61
2023-05-25T14:18:58.985Z,19.29
2023-05-25T14:21:56.673Z,19.85
2023-05-25T14:24:51.976Z,19.87
2023-05-25T14:27:39.853Z,19.28
2023-05-25T14:30:27.585Z,20.00
2023-05-25T14:33:17.382Z,20.11
2023-05-25T14:36:06.090Z,20.16
2023-05-25T14:38:55.220Z,19.84
2023-05-25T14:41:43.262Z,19.69
2023-05-25T14:44:30.952Z,19.65
2023-05-25T14:47:18.722Z,19.82
2023-05-25T14:50:07.528Z,20.16
2023-05-25T14:52:55.220Z,19.98
2023-05-25T14:55:44.625Z,19.89
2023-05-25T14:58:32.978Z,19.44
2023-05-25T15:01:23.094Z,20.15
2023-05-25T15:04:13.081Z,19.72
2023-05-25T15:07:01.514Z,19.64
2023-05-25T15:09:49.542Z,19.49
2023-05-25T15:12:38.667Z,19.22
2023-05-25T15:15:26.622Z,19.23
2023-05-25T15:18:14.430Z,19.18
2023-05-25T15:21:02.456Z,19.13
2023-05-25T15:23:50.276Z,19.20
2023-05-25T15:26:37.920Z,18.96
2023-05-25T15:29:27.037Z,18.34
2023-05-25T15:32:17.844Z,18.95
2023-05-25T15:35:06.384Z,18.90
2023-05-25T15:37:54.056Z,19.13
2023-05-25T15:40:41.841Z,19.00
2023-05-25T15:43:29.520Z,19.02
2023-05-25T15:46:18.652Z,19.10
2023-05-25T15:49:10.965Z,19.02
2023-05-25T15:51:58.666Z,19.16
2023-05-25T15:54:46.555Z,19.29
2023-05-25T15:57:34.366Z,19.33
2023-05-25T16:00:22.500Z,19.15
2023-05-25T16:03:11.673Z,19.19
2023-05-25T16:05:59.851Z,19.17
2023-05-25T16:08:47.716Z,19.09
2023-05-25T16:11:35.612Z,19.03
2023-05-25T16:14:23.641Z,19.07
2023-05-25T16:17:11.980Z,19.10
2023-05-25T16:20:01.224Z,18.95
2023-05-25T16:22:48.962Z,18.98
2023-05-25T16:25:36.756Z,19.08
2023-05-25T16:28:24.632Z,18.88
2023-05-25T16:31:13.538Z,19.23
2023-05-25T16:34:01.656Z,18.46
2023-05-25T16:36:50.832Z,18.96
2023-05-25T16:39:38.622Z,19.00
2023-05-25T16:42:26.414Z,18.94
2023-05-25T16:45:14.110Z,19.00
2023-05-25T16:48:01.757Z,18.85
2023-05-25T16:50:49.564Z,18.82
2023-05-25T16:53:38.756Z,19.06
2023-05-25T16:56:26.862Z,19.12
2023-05-25T16:59:14.874Z,19.41
2023-05-25T17:02:02.562Z,19.08
2023-05-25T17:04:50.401Z,19.03
2023-05-25T17:07:39.374Z,19.10
2023-05-25T17:10:28.457Z,18.66
2023-05-25T17:13:16.802Z,18.66
2023-05-25T17:16:04.554Z,18.71
2023-05-25T17:18:52.552Z,18.91
2023-05-25T17:21:40.256Z,18.72
2023-05-25T17:24:28.072Z,18.81
2023-05-25T17:27:17.667Z,18.88
2023-05-25T17:30:06.128Z,18.72
2023-05-25T17:32:54.634Z,18.86
2023-05-25T17:35:42.333Z,18.82
2023-05-25T17:38:30.307Z,19.05
2023-05-25T17:41:18.200Z,19.22
2023-05-25T17:44:07.599Z,18.59
2023-05-25T17:46:55.256Z,18.35
2023-05-25T17:49:43.121Z,18.65
2023-05-25T17:52:31.745Z,18.70
2023-05-25T17:55:20.640Z,18.67
2023-05-25T17:58:08.563Z,18.28
2023-05-25T18:00:57.844Z,18.25
2023-05-25T18:03:45.952Z,18.32
2023-05-25T18:06:34.139Z,18.10
2023-05-25T18:09:22.363Z,18.37
2023-05-25T18:12:10.578Z,18.11
2023-05-25T18:14:58.162Z,18.08
2023-05-25T18:17:47.384Z,18.50
2023-05-25T18:20:35.343Z,18.36
2023-05-25T18:23:23.394Z,18.39
2023-05-25T18:26:11.041Z,18.32
2023-05-25T18:28:58.691Z,18.37
2023-05-25T18:31:48.911Z,18.04
2023-05-25T18:34:38.125Z,17.48
2023-05-25T18:37:26.662Z,17.97
2023-05-25T18:40:14.706Z,18.24
2023-05-25T18:43:02.589Z,17.71
2023-05-25T18:45:50.260Z,17.46
2023-05-25T18:48:37.923Z,17.42
2023-05-25T18:51:26.996Z,17.63
2023-05-25T18:54:14.881Z,17.86
2023-05-25T18:57:03.054Z,17.86
2023-05-25T18:59:50.948Z,17.47
2023-05-25T19:02:39.115Z,17.80
2023-05-25T19:05:27.555Z,17.99
2023-05-25T19:08:16.797Z,17.54
2023-05-25T19:11:04.530Z,17.30
2023-05-25T19:13:52.307Z,17.83
2023-05-25T19:16:40.136Z,17.85
2023-05-25T19:19:27.864Z,17.66
2023-05-25T19:22:18.356Z,17.58
2023-05-25T19:25:08.729Z,17.22
2023-05-25T19:27:58.691Z,17.31
2023-05-25T19:30:46.447Z,17.26
2023-05-25T19:33:34.174Z,16.91
2023-05-25T19:36:22.810Z,16.73
2023-05-25T19:39:10.492Z,16.88
2023-05-25T19:42:00.308Z,16.80
2023-05-25T19:44:48.234Z,16.78
2023-05-25T19:47:36.024Z,16.80
2023-05-25T19:50:23.822Z,16.78
2023-05-25T19:53:11.561Z,16.81
2023-05-25T19:55:59.797Z,16.62
2023-05-25T19:58:48.886Z,16.52
2023-05-25T20:01:38.334Z,16.56
2023-05-25T20:04:26.432Z,16.52
2023-05-25T20:07:14.464Z,16.54
2023-05-25T20:10:02.107Z,16.78
2023-05-25T20:12:49.913Z,16.65
2023-05-25T20:15:39.163Z,16.40
2023-05-25T20:18:26.916Z,16.20
2023-05-25T20:21:15.003Z,16.44
2023-05-25T20:24:03.537Z,16.61
2023-05-25T20:26:56.619Z,16.32
2023-05-25T20:29:44.575Z,16.46
2023-05-25T20:32:33.785Z,16.34
2023-05-25T20:35:21.936Z,16.35
2023-05-25T20:38:09.709Z,16.09
2023-05-25T20:40:57.529Z,16.26
2023-05-25T20:43:45.309Z,15.99
2023-05-25T20:46:33.248Z,16.35
2023-05-25T20:49:24.459Z,16.30
2023-05-25T20:52:13.675Z,16.23
2023-05-25T20:55:01.585Z,16.10
2023-05-25T20:57:49.528Z,16.53
2023-05-25T21:00:37.284Z,16.15
2023-05-25T21:03:25.107Z,16.19
2023-05-25T21:06:14.555Z,16.39
2023-05-25T21:09:02.385Z,16.10
2023-05-25T21:11:50.305Z,15.93
2023-05-25T21:14:38.238Z,15.93
2023-05-25T21:17:26.097Z,15.69
2023-05-25T21:20:14.061Z,15.71
2023-05-25T21:23:03.245Z,15.69
2023-05-25T21:25:50.963Z,15.83
2023-05-25T21:28:38.873Z,15.79
2023-05-25T21:31:26.790Z,15.74
2023-05-25T21:34:15.056Z,16.25
2023-05-25T21:37:03.357Z,15.68
2023-05-25T21:39:52.598Z,15.91
2023-05-25T21:42:40.333Z,16.07
2023-05-25T21:45:28.139Z,16.26
2023-05-25T21:48:16.031Z,16.29
2023-05-25T21:51:03.936Z,16.29
2023-05-25T21:53:52.045Z,16.54
2023-05-25T21:56:41.128Z,16.75
2023-05-25T21:59:28.990Z,16.40
2023-05-25T22:02:16.780Z,16.37
2023-05-25T22:05:04.885Z,16.20
2023-05-25T22:07:55.040Z,16.33
2023-05-25T22:10:43.448Z,16.19
2023-05-25T22:13:32.779Z,16.18
2023-05-25T22:16:20.543Z,16.29
2023-05-25T22:19:08.845Z,16.25
2023-05-25T22:21:56.547Z,16.22
2023-05-25T22:24:44.250Z,16.28
2023-05-25T22:27:32.133Z,16.50
2023-05-25T22:30:21.285Z,16.80
2023-05-25T22:33:09.354Z,16.74
2023-05-25T22:35:57.091Z,16.56
2023-05-25T22:38:44.962Z,16.34
2023-05-25T22:41:32.725Z,16.72
2023-05-25T22:44:20.504Z,16.33
2023-05-25T22:47:09.618Z,16.37
2023-05-25T22:49:57.385Z,16.31
2023-05-25T22:52:45.466Z,16.41
2023-05-25T22:55:33.363Z,16.48
2023-05-25T22:58:21.224Z,16.48
2023-05-25T23:01:08.889Z,16.61
2023-05-25T23:03:59.653Z,16.49
2023-05-25T23:06:47.580Z,16.58
2023-05-25T23:09:35.309Z,16.69
2023-05-25T23:12:23.266Z,16.77
2023-05-25T23:15:12.331Z,16.81
2023-05-25T23:18:00.269Z,16.44
2023-05-25T23:20:50.489Z,16.20
2023-05-25T23:23:38.306Z,16.26
2023-05-25T23:26:26.630Z,16.09
2023-05-25T23:29:14.367Z,16.15
2023-05-25T23:32:02.520Z,16.20
2023-05-25T23:34:50.348Z,16.29
2023-05-25T23:37:39.639Z,16.28
2023-05-25T23:40:27.356Z,16.35
2023-05-25T23:43:15.218Z,16.31
2023-05-25T23:46:03.364Z,16.06
2023-05-25T23:48:51.273Z,15.81
2023-05-25T23:51:39.198Z,16.02
2023-05-25T23:54:28.253Z,15.83
2023-05-25T23:57:16.155Z,15.96
